TimeEDT,TemperatureF,Dew PointF,Humidity,Sea Level PressureIn,VisibilityMPH,Wind Direction,Wind SpeedMPH,Gust SpeedMPH,PrecipitationIn,Events,Conditions,WindDirDegrees,DateUTC
12:00 AM,57.2,46.4,67,30.25,9.0,Calm,Calm,-,N/A,,Clear,0,2013-05-01 04:00:00
1:00 AM,57.2,48.2,72,30.27,9.0,Variable,2.3,-,N/A,,Clear,0,2013-05-01 05:00:00
2:00 AM,55,47,68,30.29,10,SSE,3.5,,,,,150,2013-05-01 06:00:00
2:00 AM,55.4,48.2,77,30.28,9.0,SSE,3.5,-,N/A,,Clear,150,2013-05-01 06:00:00
3:00 AM,53.6,46.4,77,30.31,9.0,SSW,2.3,-,N/A,,Mostly Cloudy,200,2013-05-01 07:00:00
4:00 AM,53.6,46.4,77,30.32,9.0,SSW,4.6,-,N/A,,Partly Cloudy,200,2013-05-01 08:00:00
5:00 AM,51.8,46.4,82,30.34,9.0,South,5.8,-,N/A,,Clear,190,2013-05-01 09:00:00
6:00 AM,51.8,46.4,82,30.36,9.0,South,3.5,-,N/A,,Clear,180,2013-05-01 10:00:00
7:00 AM,53.6,48.2,82,30.38,9.0,Calm,Calm,-,N/A,,Clear,0,2013-05-01 11:00:00
8:00 AM,60,47,51,30.41,10,SSW,4.6,,,,,200,2013-05-01 12:00:00
8:00 AM,59.0,46.4,63,30.40,9.0,SW,3.5,-,N/A,,Clear,220,2013-05-01 12:00:00
9:00 AM,64.4,48.2,56,30.41,9.0,SW,3.5,-,N/A,,Clear,220,2013-05-01 13:00:00
10:00 AM,68.0,50.0,52,30.41,9.0,Variable,3.5,-,N/A,,Clear,0,2013-05-01 14:00:00
10:25 AM,69.8,50.0,49,30.41,9.0,Variable,2.3,-,N/A,,Partly Cloudy,0,2013-05-01 14:25:00
11:00 AM,69.8,50.0,49,30.41,9.0,WNW,5.8,-,N/A,,Clear,300,2013-05-01 15:00:00
12:00 PM,71.6,50.0,46,30.38,9.0,NNW,5.8,-,N/A,,Clear,330,2013-05-01 16:00:00
1:00 PM,75.2,48.2,38,30.38,9.0,Variable,4.6,-,N/A,,Clear,0,2013-05-01 17:00:00
2:00 PM,77,43,19,30.36,10,South,8.1,,,,,180,2013-05-01 18:00:00
2:00 PM,77.0,42.8,29,30.36,9.0,South,11.5,-,N/A,,Clear,180,2013-05-01 18:00:00
3:00 PM,77.0,42.8,29,30.35,9.0,SE,5.8,-,N/A,,Clear,130,2013-05-01 19:00:00
5:00 PM,77.0,39.2,26,30.34,9.0,SSE,5.8,-,N/A,,Clear,160,2013-05-01 21:00:00
6:00 PM,77.0,39.2,26,30.35,9.0,WSW,5.8,-,N/A,,Partly Cloudy,250,2013-05-01 22:00:00
7:00 PM,75.2,37.4,25,30.34,9.0,Variable,2.3,-,N/A,,Mostly Cloudy,0,2013-05-01 23:00:00
8:00 PM,72,38,19,30.35,10,NNE,2.3,,,,,20,2013-05-02 00:00:00
8:00 PM,73.4,39.2,29,30.35,9.0,NNE,3.5,-,N/A,,Clear,30,2013-05-02 00:00:00
9:00 PM,68.0,39.2,35,30.35,8.0,NE,4.6,-,N/A,,Clear,50,2013-05-02 01:00:00
10:00 PM,62.6,41.0,45,30.36,9.0,NE,4.6,-,N/A,,Scattered Clouds,40,2013-05-02 02:00:00
11:00 PM,59.0,42.8,55,30.35,9.0,ENE,2.3,-,N/A,,Scattered Clouds,70,2013-05-02 03:00:00